createdAt,value
2022-12-08T00:00:35.353Z,98991.94
2022-12-08T00:04:56.567Z,98996.22
2022-12-08T00:09:16.716Z,98988.47
2022-12-08T00:13:36.914Z,98973.88
2022-12-08T00:17:38.262Z,98971.31
2022-12-08T00:21:39.620Z,98962.63
2022-12-08T00:25:40.931Z,98960.03
2022-12-08T00:29:45.572Z,98958.28
2022-12-08T00:33:47.168Z,98945.47
2022-12-08T00:37:48.425Z,98941.16
2022-12-08T00:42:08.974Z,98945.38
2022-12-08T00:46:10.525Z,98944.44
2022-12-08T00:50:11.983Z,98941.84
2022-12-08T00:54:13.392Z,98932.34
2022-12-08T00:58:14.659Z,98936.66
2022-12-08T01:02:16.012Z,98935.00
2022-12-08T01:06:17.296Z,98932.47
2022-12-08T01:10:18.632Z,98923.94
2022-12-08T01:14:19.920Z,98920.53
2022-12-08T01:18:21.212Z,98921.34
2022-12-08T01:22:22.492Z,98921.38
2022-12-08T01:26:23.759Z,98918.78
2022-12-08T01:30:25.620Z,98919.69
2022-12-08T01:34:26.939Z,98919.72
2022-12-08T01:38:28.243Z,98912.06
2022-12-08T01:42:30.811Z,98914.66
2022-12-08T01:46:33.599Z,98913.00
2022-12-08T01:50:35.470Z,98911.34
2022-12-08T01:54:39.662Z,98909.63
2022-12-08T01:58:47.423Z,98910.47
2022-12-08T02:02:52.196Z,98899.34
2022-12-08T02:06:53.603Z,98896.78
2022-12-08T02:10:54.952Z,98900.19
2022-12-08T02:14:58.415Z,98902.78
2022-12-08T02:23:45.985Z,98886.56
2022-12-08T02:28:05.815Z,98883.13
2022-12-08T02:32:09.965Z,98885.78
2022-12-08T02:36:28.706Z,98879.00
2022-12-08T02:40:34.276Z,98877.28
2022-12-08T02:44:39.605Z,98874.75
2022-12-08T02:48:41.621Z,98864.56
2022-12-08T02:52:44.314Z,98857.75
2022-12-08T02:57:02.275Z,98856.03
2022-12-08T03:01:03.932Z,98845.81
2022-12-08T03:05:09.509Z,98844.09
2022-12-08T03:09:17.345Z,98847.47
2022-12-08T03:13:34.458Z,98836.28
2022-12-08T03:17:37.946Z,98832.88
2022-12-08T03:21:40.511Z,98831.13
2022-12-08T03:25:45.951Z,98833.75
2022-12-08T03:29:48.221Z,98827.78
2022-12-08T03:33:51.578Z,98822.66
2022-12-08T03:38:01.242Z,98815.84
2022-12-08T03:42:02.505Z,98809.00
2022-12-08T03:46:03.827Z,98806.47
2022-12-08T03:50:05.807Z,98798.78
2022-12-08T03:54:07.214Z,98797.91
2022-12-08T03:58:08.474Z,98795.34
2022-12-08T04:02:09.761Z,98785.06
2022-12-08T04:06:11.055Z,98772.25
2022-12-08T04:10:12.466Z,98773.97
2022-12-08T04:14:14.379Z,98775.69
2022-12-08T04:18:15.690Z,98783.38
2022-12-08T04:22:16.997Z,98778.25
2022-12-08T04:26:18.440Z,98775.69
2022-12-08T04:30:19.747Z,98768.78
2022-12-08T04:34:21.027Z,98773.88
2022-12-08T04:38:22.655Z,98768.75
2022-12-08T04:42:23.885Z,98758.50
2022-12-08T04:46:25.649Z,98763.56
2022-12-08T04:50:27.756Z,98761.00
2022-12-08T04:54:29.165Z,98767.78
2022-12-08T04:58:30.391Z,98760.94
2022-12-08T05:02:32.654Z,98761.78
2022-12-08T05:06:33.968Z,98759.22
2022-12-08T05:10:35.311Z,98761.81
2022-12-08T05:14:36.684Z,98754.13
2022-12-08T05:18:38.599Z,98750.78
2022-12-08T05:22:39.875Z,98755.06
2022-12-08T05:26:41.135Z,98753.41
2022-12-08T05:30:42.360Z,98756.84
2022-12-08T05:34:43.767Z,98752.59
2022-12-08T05:38:45.558Z,98750.03
2022-12-08T05:42:46.863Z,98744.91
2022-12-08T05:46:48.154Z,98739.72
2022-12-08T05:50:49.853Z,98744.84
2022-12-08T05:54:51.089Z,98743.13
2022-12-08T05:58:53.196Z,98744.00
2022-12-08T06:02:54.588Z,98742.31
2022-12-08T06:06:55.929Z,98741.47
2022-12-08T06:10:57.171Z,98733.78
2022-12-08T06:14:59.066Z,98738.91
2022-12-08T06:19:00.327Z,98739.75
2022-12-08T06:23:02.087Z,98739.78
2022-12-08T06:27:03.459Z,98744.88
2022-12-08T06:31:24.549Z,98741.44
2022-12-08T06:35:25.900Z,98738.00
2022-12-08T06:39:27.378Z,98746.53
2022-12-08T06:43:28.714Z,98750.81
2022-12-08T06:47:30.055Z,98743.13
2022-12-08T06:51:31.299Z,98749.16
2022-12-08T06:55:57.822Z,98749.13
2022-12-08T06:59:54.062Z,98749.97
2022-12-08T07:03:55.456Z,98743.13
2022-12-08T07:07:56.828Z,98738.84
2022-12-08T07:11:58.416Z,98738.78
2022-12-08T07:15:59.817Z,98739.66
2022-12-08T07:20:01.966Z,98747.38
2022-12-08T07:24:03.657Z,98739.59
2022-12-08T07:28:09.139Z,98740.47
2022-12-08T07:32:10.479Z,98741.22
2022-12-08T07:36:12.360Z,98739.47
2022-12-08T07:40:13.720Z,98729.19
2022-12-08T07:44:15.123Z,98737.75
2022-12-08T07:48:16.937Z,98732.66
2022-12-08T07:52:18.303Z,98737.81
2022-12-08T07:56:20.071Z,98738.66
2022-12-08T08:00:21.631Z,98741.28
2022-12-08T08:04:23.018Z,98741.31
2022-12-08T08:08:24.486Z,98730.25
2022-12-08T08:12:33.346Z,98734.53
2022-12-08T08:16:38.300Z,98727.69
2022-12-08T08:20:40.296Z,98731.13
2022-12-08T08:24:45.048Z,98724.31
2022-12-08T08:28:48.067Z,98725.22
2022-12-08T08:32:49.840Z,98730.44
2022-12-08T08:36:51.233Z,98728.72
2022-12-08T08:40:53.033Z,98731.34
2022-12-08T08:44:54.299Z,98720.22
2022-12-08T08:48:56.064Z,98723.72
2022-12-08T08:52:57.334Z,98717.78
2022-12-08T08:56:59.644Z,98723.91
2022-12-08T09:01:00.976Z,98721.38
2022-12-08T09:05:02.581Z,98719.69
2022-12-08T09:09:04.227Z,98724.00
2022-12-08T09:13:05.615Z,98715.50
2022-12-08T09:17:07.339Z,98718.16
2022-12-08T09:21:14.009Z,98714.72
2022-12-08T09:25:15.651Z,98708.75
2022-12-08T09:29:19.755Z,98703.63
2022-12-08T09:33:21.704Z,98710.53
2022-12-08T09:37:23.103Z,98699.50
2022-12-08T09:41:46.396Z,98715.72
2022-12-08T09:45:54.752Z,98715.75
2022-12-08T09:50:10.610Z,98711.50
2022-12-08T09:54:15.514Z,98702.16
2022-12-08T09:58:50.149Z,98690.25
2022-12-08T10:02:53.807Z,98692.00
2022-12-08T10:06:55.459Z,98685.97
2022-12-08T10:11:00.652Z,98685.16
2022-12-08T10:15:31.929Z,98687.69
2022-12-08T10:19:36.767Z,98673.16
2022-12-08T10:23:42.567Z,98676.63
2022-12-08T10:27:45.318Z,98672.34
2022-12-08T10:31:48.676Z,98671.47
2022-12-08T10:59:19.725Z,98649.41
2022-12-08T11:03:29.555Z,98642.59
2022-12-08T11:07:30.942Z,98636.63
2022-12-08T11:11:47.035Z,98628.94
2022-12-08T11:15:49.150Z,98622.94
2022-12-08T11:20:00.983Z,98628.06
2022-12-08T11:24:14.428Z,98632.34
2022-12-08T11:28:17.420Z,98614.38
2022-12-08T11:32:19.922Z,98604.16
2022-12-08T11:36:23.681Z,98603.34
2022-12-08T11:40:34.625Z,98599.09
2022-12-08T11:44:57.480Z,98590.56
2022-12-08T11:49:09.286Z,98581.13
2022-12-08T11:53:29.319Z,98577.72
2022-12-08T11:57:30.691Z,98575.16
2022-12-08T12:10:25.688Z,98564.00
2022-12-08T12:14:29.945Z,98564.84
2022-12-08T12:18:43.588Z,98563.13
2022-12-08T12:27:34.284Z,98556.31
2022-12-08T12:31:46.271Z,98547.72
2022-12-08T12:35:55.040Z,98550.34
2022-12-08T12:40:11.414Z,98542.56
2022-12-08T12:44:24.266Z,98538.31
2022-12-08T12:48:31.840Z,98546.06
2022-12-08T12:52:36.849Z,98537.50
2022-12-08T13:01:22.630Z,98538.38
2022-12-08T13:10:18.788Z,98543.47
2022-12-08T13:14:45.183Z,98538.28
2022-12-08T13:18:49.386Z,98534.00
2022-12-08T13:22:53.680Z,98527.19
2022-12-08T13:27:04.283Z,98530.63
2022-12-08T13:35:52.151Z,98510.94
2022-12-08T13:45:21.324Z,98512.63
2022-12-08T13:58:25.473Z,98493.72
2022-12-08T14:02:30.405Z,98492.88
2022-12-08T14:06:36.380Z,98494.56
2022-12-08T14:10:37.655Z,98499.72
2022-12-08T14:15:01.750Z,98496.28
2022-12-08T14:19:22.264Z,98500.56
2022-12-08T14:23:23.932Z,98491.97
2022-12-08T14:27:26.580Z,98491.06
2022-12-08T14:31:30.974Z,98502.19
2022-12-08T14:44:24.543Z,98508.91
2022-12-08T14:48:39.668Z,98508.91
2022-12-08T14:52:43.360Z,98502.91
2022-12-08T14:56:48.873Z,98514.03
2022-12-08T15:00:54.563Z,98510.53
2022-12-08T15:05:02.076Z,98513.09
2022-12-08T15:09:15.271Z,98505.34
2022-12-08T15:13:16.602Z,98508.75
2022-12-08T15:17:41.932Z,98513.03
2022-12-08T15:21:43.597Z,98515.59
2022-12-08T15:25:45.023Z,98517.25
2022-12-08T15:29:47.309Z,98502.69
2022-12-08T15:33:51.336Z,98507.78
2022-12-08T15:37:52.765Z,98512.91
2022-12-08T15:41:54.004Z,98492.34
2022-12-08T15:45:59.579Z,98497.44
2022-12-08T15:50:05.067Z,98500.00
2022-12-08T15:54:06.878Z,98494.84
2022-12-08T16:02:56.383Z,98487.13
2022-12-08T16:12:04.429Z,98490.50
2022-12-08T16:16:00.259Z,98481.91
2022-12-08T16:20:03.272Z,98486.16
2022-12-08T16:24:09.272Z,98481.84
2022-12-08T16:28:51.744Z,98478.44
2022-12-08T16:32:32.435Z,98468.19
2022-12-08T16:36:33.727Z,98460.47
2022-12-08T16:40:55.053Z,98467.28
2022-12-08T16:44:56.437Z,98469.81
2022-12-08T16:48:58.905Z,98467.19
2022-12-08T16:53:04.917Z,98460.31
2022-12-08T16:57:06.196Z,98460.34
2022-12-08T17:01:10.479Z,98462.00
2022-12-08T17:05:16.351Z,98458.53
2022-12-08T17:09:17.703Z,98463.66
2022-12-08T17:13:19.019Z,98454.19
2022-12-08T17:17:25.561Z,98455.88
2022-12-08T17:21:34.941Z,98448.19
2022-12-08T17:26:01.757Z,98451.59
2022-12-08T17:30:24.162Z,98456.72
2022-12-08T17:43:13.040Z,98452.44
2022-12-08T17:55:57.076Z,98453.16
2022-12-08T17:59:58.955Z,98452.31
2022-12-08T18:04:04.148Z,98455.72
2022-12-08T18:08:05.944Z,98459.97
2022-12-08T18:12:07.419Z,98454.00
2022-12-08T18:16:08.803Z,98460.84
2022-12-08T18:20:10.509Z,98457.41
2022-12-08T18:24:16.294Z,98449.69
2022-12-08T18:28:17.646Z,98451.41
2022-12-08T18:32:22.747Z,98450.56
2022-12-08T18:36:24.814Z,98453.13
2022-12-08T18:40:27.022Z,98448.88
2022-12-08T18:44:28.619Z,98454.84
2022-12-08T18:48:30.143Z,98451.41
2022-12-08T18:52:32.435Z,98451.41
2022-12-08T18:56:34.751Z,98450.50
2022-12-08T19:00:36.054Z,98444.50
2022-12-08T19:04:38.995Z,98449.63
2022-12-08T19:08:40.635Z,98452.16
2022-12-08T19:12:42.199Z,98448.69
2022-12-08T19:16:43.606Z,98439.28
2022-12-08T19:20:45.752Z,98443.50
2022-12-08T19:24:47.067Z,98439.22
2022-12-08T19:28:48.517Z,98433.19
2022-12-08T19:32:50.348Z,98430.66
2022-12-08T19:36:51.707Z,98437.47
2022-12-08T19:45:30.299Z,98421.25
2022-12-08T19:49:34.721Z,98416.97
2022-12-08T19:53:50.657Z,98418.66
2022-12-08T19:57:58.422Z,98416.94
2022-12-08T20:06:30.710Z,98416.97
2022-12-08T20:10:50.207Z,98412.59
2022-12-08T20:15:03.838Z,98416.88
2022-12-08T20:19:12.587Z,98412.56
2022-12-08T20:23:22.887Z,98415.19
2022-12-08T20:27:33.387Z,98415.16
2022-12-08T20:31:44.659Z,98413.44
2022-12-08T20:35:46.223Z,98413.38
2022-12-08T20:39:47.592Z,98408.22
2022-12-08T20:43:49.281Z,98403.06
2022-12-08T20:47:50.661Z,98403.94
2022-12-08T20:51:52.377Z,98399.69
2022-12-08T20:55:53.947Z,98404.81
2022-12-08T20:59:55.339Z,98409.09
2022-12-08T21:03:57.309Z,98405.69
2022-12-08T21:07:59.029Z,98403.13
2022-12-08T21:12:00.504Z,98409.09
2022-12-08T21:16:02.403Z,98412.47
2022-12-08T21:20:04.542Z,98409.91
2022-12-08T21:24:06.917Z,98409.91
2022-12-08T21:28:08.421Z,98410.78
2022-12-08T21:32:09.850Z,98412.47
2022-12-08T21:36:12.718Z,98405.56
2022-12-08T21:40:15.022Z,98405.44
2022-12-08T21:44:20.576Z,98410.47
2022-12-08T21:48:23.635Z,98409.59
2022-12-08T21:52:25.697Z,98405.28
2022-12-08T21:56:27.898Z,98408.53
2022-12-08T22:00:29.474Z,98404.19
2022-12-08T22:04:31.157Z,98401.44
2022-12-08T22:08:32.727Z,98404.75
2022-12-08T22:12:35.788Z,98405.56
2022-12-08T22:16:38.622Z,98399.47
2022-12-08T22:20:43.828Z,98399.31
2022-12-08T22:24:45.691Z,98405.91
2022-12-08T22:28:49.131Z,98403.16
2022-12-08T22:32:51.899Z,98403.13
2022-12-08T22:36:55.123Z,98402.25
2022-12-08T22:40:56.669Z,98392.78
2022-12-08T22:44:59.983Z,98390.25
2022-12-08T22:49:01.501Z,98391.09
2022-12-08T22:53:02.956Z,98387.53
2022-12-08T22:57:04.370Z,98373.09
2022-12-08T23:01:06.323Z,98371.34
2022-12-08T23:05:07.955Z,98362.66
2022-12-08T23:09:09.473Z,98356.53
2022-12-08T23:13:11.246Z,98353.97
2022-12-08T23:17:12.630Z,98363.31
2022-12-08T23:21:15.608Z,98362.47
2022-12-08T23:25:18.543Z,98354.78
2022-12-08T23:29:20.252Z,98355.63
2022-12-08T23:33:22.006Z,98348.78
2022-12-08T23:37:23.307Z,98353.91
2022-12-08T23:41:24.690Z,98347.13
2022-12-08T23:45:26.148Z,98342.00
2022-12-08T23:49:27.547Z,98338.63
2022-12-08T23:53:29.841Z,98331.00
2022-12-08T23:57:31.194Z,98330.97
